Time;durP1;ratioP1;P1;durP2;ratioP2;P2;SDS_P1;SDS_P2;PMS_P1;PMS_P2;Temp;Humidity;BMP_temperature;BMP_pressure;BME280_temperature;BME280_humidity;BME280_pressure;Samples;Min_cycle;Max_cycle;Signal;HPM_P1;HPM_P2
2023/07/07 00:00:42;;;;;;;12.50;11.50;;;16.00;99.90;;;;;;5052743;28;21065;-74
2023/07/07 00:03:09;;;;;;;11.33;10.63;;;15.90;99.90;;;;;;5050805;28;20475;-74
2023/07/07 00:05:36;;;;;;;11.93;11.33;;;16.00;99.90;;;;;;5053020;28;20448;-74
2023/07/07 00:08:04;;;;;;;11.10;10.63;;;15.90;99.90;;;;;;5052736;28;20484;-73
2023/07/07 00:10:32;;;;;;;12.20;11.70;;;15.80;99.90;;;;;;5052406;28;20480;-74
2023/07/07 00:12:59;;;;;;;11.40;10.70;;;15.70;99.90;;;;;;5052617;28;20452;-74
2023/07/07 00:15:25;;;;;;;10.87;10.37;;;15.60;99.90;;;;;;5052583;28;20480;-73
2023/07/07 00:17:52;;;;;;;11.37;10.73;;;15.50;99.90;;;;;;5052600;28;20830;-73
2023/07/07 00:20:21;;;;;;;11.30;10.60;;;15.50;99.90;;;;;;5052587;28;20448;-73
2023/07/07 00:22:48;;;;;;;12.77;12.07;;;15.60;99.90;;;;;;5052729;28;20964;-72
2023/07/07 00:25:16;;;;;;;10.73;10.13;;;15.70;99.90;;;;;;5052369;28;20452;-72
2023/07/07 00:27:44;;;;;;;10.30;9.60;;;15.50;99.90;;;;;;5052302;28;20448;-73
2023/07/07 00:30:12;;;;;;;11.47;10.97;;;15.50;99.90;;;;;;5052272;28;21171;-74
2023/07/07 00:32:38;;;;;;;10.43;9.93;;;15.50;99.90;;;;;;5052209;28;20452;-73
2023/07/07 00:35:06;;;;;;;11.37;10.87;;;15.40;99.90;;;;;;5052205;28;20472;-73
2023/07/07 00:37:35;;;;;;;12.60;11.90;;;15.20;99.90;;;;;;5052418;28;20455;-75
2023/07/07 00:40:02;;;;;;;11.50;10.80;;;15.30;99.90;;;;;;5052242;28;20440;-74
2023/07/07 00:42:29;;;;;;;13.07;12.37;;;15.30;99.90;;;;;;5052404;28;20527;-75
2023/07/07 00:45:19;;;;;;;12.17;11.43;;;15.40;99.90;;;;;;5052010;28;20444;-74
2023/07/07 00:47:55;;;;;;;12.10;11.00;;;15.40;99.90;;;;;;5046749;28;21051;-74
2023/07/07 00:50:26;;;;;;;10.90;10.27;;;15.30;99.90;;;;;;5051526;28;20488;-74
2023/07/07 00:52:53;;;;;;;12.47;11.67;;;15.20;99.90;;;;;;5051783;28;20447;-73
2023/07/07 00:55:26;;;;;;;11.30;10.60;;;15.20;99.90;;;;;;5052384;28;20801;-72
2023/07/07 00:57:53;;;;;;;10.87;10.27;;;15.20;99.90;;;;;;5049814;28;20475;-71
2023/07/07 01:00:21;;;;;;;10.13;9.70;;;15.30;99.90;;;;;;5033184;28;20457;-71
2023/07/07 01:02:54;;;;;;;12.10;10.93;;;15.40;99.90;;;;;;5032319;28;20456;-72
2023/07/07 01:05:22;;;;;;;13.10;12.30;;;15.30;99.90;;;;;;5049865;28;20816;-73
2023/07/07 01:07:51;;;;;;;12.17;11.47;;;15.30;99.90;;;;;;5051959;28;20484;-73
2023/07/07 01:10:19;;;;;;;12.60;11.77;;;15.30;99.90;;;;;;5052013;28;20555;-73
2023/07/07 01:12:47;;;;;;;12.07;11.47;;;15.20;99.90;;;;;;5051642;28;20455;-73
2023/07/07 01:15:14;;;;;;;12.43;11.83;;;15.20;99.90;;;;;;5051470;28;20448;-73
2023/07/07 01:17:52;;;;;;;12.10;11.40;;;15.20;99.90;;;;;;5051285;28;20471;-74
2023/07/07 01:20:27;;;;;;;11.47;10.80;;;15.30;99.90;;;;;;5051740;28;20458;-74
2023/07/07 01:23:29;;;;;;;11.50;10.83;;;15.30;99.90;;;;;;5051345;28;20452;-73
2023/07/07 01:26:15;;;;;;;12.80;12.00;;;15.20;99.90;;;;;;5051508;28;20455;-73
2023/07/07 01:29:14;;;;;;;11.90;11.30;;;15.20;99.90;;;;;;5051203;28;20448;-74
2023/07/07 01:31:47;;;;;;;10.33;9.83;;;15.30;99.90;;;;;;5051305;28;20490;-74
2023/07/07 01:34:16;;;;;;;12.10;11.40;;;15.30;99.90;;;;;;5051298;28;20459;-74
2023/07/07 01:36:43;;;;;;;12.10;11.40;;;15.20;99.90;;;;;;5051056;28;20468;-74
2023/07/07 01:39:11;;;;;;;12.30;11.60;;;15.20;99.90;;;;;;5051325;28;20444;-73
2023/07/07 01:41:45;;;;;;;12.93;12.10;;;15.20;99.90;;;;;;5051080;28;20997;-74
2023/07/07 01:44:17;;;;;;;11.70;10.90;;;15.20;99.90;;;;;;5051127;28;20488;-73
2023/07/07 01:46:50;;;;;;;9.93;9.43;;;15.20;99.90;;;;;;5050976;28;20474;-73
2023/07/07 01:49:22;;;;;;;11.57;10.77;;;15.20;99.90;;;;;;5050557;28;20810;-74
2023/07/07 01:51:55;;;;;;;12.10;11.50;;;15.20;99.90;;;;;;5050987;28;20495;-73
2023/07/07 01:54:23;;;;;;;12.67;11.93;;;15.20;99.90;;;;;;5050925;28;20471;-73
2023/07/07 01:56:51;;;;;;;13.67;12.87;;;15.20;99.90;;;;;;5050980;28;20455;-75
2023/07/07 01:59:17;;;;;;;12.30;11.80;;;15.20;99.90;;;;;;5048536;28;20470;-75
2023/07/07 02:01:46;;;;;;;12.77;11.90;;;15.20;99.90;;;;;;5043820;28;20456;-75
2023/07/07 02:04:12;;;;;;;12.40;11.90;;;15.10;99.90;;;;;;5033087;28;20980;-75
2023/07/07 02:06:39;;;;;;;13.07;12.27;;;15.10;99.90;;;;;;5039890;28;20484;-75
2023/07/07 02:09:06;;;;;;;13.60;12.90;;;15.10;99.90;;;;;;5050773;28;20445;-75
2023/07/07 02:11:33;;;;;;;12.80;12.10;;;15.00;99.90;;;;;;5050981;28;20537;-75
2023/07/07 02:13:59;;;;;;;13.53;12.87;;;15.00;99.90;;;;;;5046420;28;20448;-74
2023/07/07 02:16:26;;;;;;;16.30;11.90;;;15.10;99.90;;;;;;5030699;28;20455;-73
2023/07/07 02:18:54;;;;;;;11.13;10.43;;;15.10;99.90;;;;;;5030726;28;20448;-73
2023/07/07 02:21:21;;;;;;;11.77;11.00;;;15.10;99.90;;;;;;5030742;28;20456;-73
2023/07/07 02:23:49;;;;;;;11.70;11.10;;;15.10;99.90;;;;;;5030896;28;20455;-73
2023/07/07 02:26:18;;;;;;;12.70;11.90;;;15.00;99.90;;;;;;5028935;28;20453;-74
2023/07/07 02:28:44;;;;;;;12.40;11.60;;;15.00;99.90;;;;;;5030533;28;20552;-74
2023/07/07 02:31:12;;;;;;;13.87;13.07;;;15.00;99.90;;;;;;5030575;28;20489;-73
2023/07/07 02:33:38;;;;;;;13.53;12.83;;;14.90;99.90;;;;;;5030663;28;20527;-73
2023/07/07 02:36:08;;;;;;;11.37;10.70;;;14.90;99.90;;;;;;5030676;28;20841;-73
2023/07/07 02:38:35;;;;;;;12.47;11.73;;;14.90;99.90;;;;;;5030878;28;20448;-73
2023/07/07 02:41:03;;;;;;;13.40;12.70;;;14.90;99.90;;;;;;5030752;28;20441;-73
2023/07/07 02:43:30;;;;;;;11.90;11.40;;;14.90;99.90;;;;;;5030552;28;20471;-73
2023/07/07 02:45:57;;;;;;;12.87;12.27;;;14.90;99.90;;;;;;5030545;28;20445;-73
2023/07/07 02:48:24;;;;;;;12.67;11.83;;;14.90;99.90;;;;;;5030419;28;20456;-74
2023/07/07 02:50:56;;;;;;;12.97;12.37;;;14.80;99.90;;;;;;5030501;28;20499;-74
2023/07/07 02:53:26;;;;;;;14.57;13.70;;;14.80;99.90;;;;;;5030561;28;20460;-73
2023/07/07 02:55:53;;;;;;;13.73;13.00;;;14.70;99.90;;;;;;5029769;28;20449;-73
2023/07/07 02:58:20;;;;;;;11.60;10.97;;;14.70;99.90;;;;;;5029744;28;20453;-74
2023/07/07 03:00:48;;;;;;;12.90;12.10;;;14.70;99.90;;;;;;5030241;28;20441;-72
2023/07/07 03:03:15;;;;;;;13.80;13.10;;;14.70;99.90;;;;;;5030028;28;20457;-73
2023/07/07 03:05:42;;;;;;;13.10;12.50;;;14.70;99.90;;;;;;5030040;28;20974;-76
2023/07/07 03:08:09;;;;;;;14.43;13.53;;;14.60;99.90;;;;;;5024755;28;20517;-76
2023/07/07 03:10:39;;;;;;;12.83;12.23;;;14.60;99.90;;;;;;5030113;28;20994;-74
2023/07/07 03:13:07;;;;;;;12.27;11.77;;;14.60;99.90;;;;;;5030125;28;20464;-74
2023/07/07 03:15:38;;;;;;;13.57;12.87;;;14.50;99.90;;;;;;5032930;28;20456;-74
2023/07/07 03:18:06;;;;;;;12.77;12.10;;;14.50;99.90;;;;;;5035654;28;20563;-74
2023/07/07 03:20:33;;;;;;;13.57;12.80;;;14.50;99.90;;;;;;5051528;28;20995;-74
2023/07/07 03:23:00;;;;;;;14.63;13.67;;;14.50;99.90;;;;;;5044143;28;20447;-73
2023/07/07 03:25:27;;;;;;;12.60;11.87;;;14.50;99.90;;;;;;5043267;28;20437;-74
2023/07/07 03:27:55;;;;;;;14.60;13.90;;;14.50;99.90;;;;;;5041959;28;20436;-74
2023/07/07 03:30:22;;;;;;;13.53;12.80;;;14.50;99.90;;;;;;5043754;28;20973;-74
2023/07/07 03:32:49;;;;;;;13.90;13.20;;;14.50;99.90;;;;;;5043273;28;20433;-74
2023/07/07 03:35:16;;;;;;;14.30;13.50;;;14.50;99.90;;;;;;5041567;28;20468;-74
2023/07/07 03:37:42;;;;;;;13.83;12.73;;;14.50;99.90;;;;;;5043460;28;20448;-74
2023/07/07 03:40:10;;;;;;;13.17;12.37;;;14.50;99.90;;;;;;5048945;28;20452;-74
2023/07/07 03:42:37;;;;;;;13.83;13.03;;;14.60;99.90;;;;;;5048040;28;20494;-73
2023/07/07 03:45:06;;;;;;;12.07;11.47;;;14.60;99.90;;;;;;5047152;28;20448;-74
2023/07/07 03:47:33;;;;;;;14.57;13.67;;;14.60;99.90;;;;;;5048945;28;20961;-74
2023/07/07 03:50:00;;;;;;;15.43;14.67;;;14.60;99.90;;;;;;5048075;28;20448;-74
2023/07/07 03:52:27;;;;;;;13.60;12.90;;;14.70;99.90;;;;;;5048201;28;20514;-73
2023/07/07 03:54:53;;;;;;;14.33;13.57;;;14.70;99.90;;;;;;5045329;28;20961;-73
2023/07/07 03:57:20;;;;;;;13.60;13.00;;;14.70;99.90;;;;;;5052819;28;20459;-75
2023/07/07 03:59:47;;;;;;;13.57;12.80;;;14.70;99.90;;;;;;5052741;28;20467;-73
2023/07/07 04:02:15;;;;;;;14.00;13.40;;;14.80;99.90;;;;;;5052642;28;20539;-75
2023/07/07 04:04:42;;;;;;;13.70;13.07;;;14.80;99.90;;;;;;5052889;28;20938;-74
2023/07/07 04:07:09;;;;;;;15.90;15.10;;;14.80;99.90;;;;;;5052662;28;20564;-75
2023/07/07 04:09:35;;;;;;;15.00;14.20;;;14.80;99.90;;;;;;5048301;28;20452;-74
2023/07/07 04:12:02;;;;;;;14.30;13.53;;;14.90;99.90;;;;;;5048157;28;20846;-75
2023/07/07 04:14:29;;;;;;;14.33;13.57;;;14.90;99.90;;;;;;5049090;28;20607;-75
2023/07/07 04:16:56;;;;;;;15.43;14.57;;;14.90;99.90;;;;;;5047376;28;20456;-76
2023/07/07 04:19:24;;;;;;;15.10;14.20;;;15.00;99.90;;;;;;5040016;28;20479;-74
2023/07/07 04:21:51;;;;;;;14.77;14.07;;;15.00;99.90;;;;;;5044622;28;20508;-74
2023/07/07 04:24:20;;;;;;;14.30;13.63;;;15.10;99.90;;;;;;5050024;28;20440;-74
2023/07/07 04:26:47;;;;;;;14.70;13.90;;;15.10;99.90;;;;;;5046091;28;20456;-74
2023/07/07 04:29:13;;;;;;;13.57;12.90;;;15.00;99.90;;;;;;5050141;28;20456;-75
2023/07/07 04:31:44;;;;;;;13.30;12.60;;;15.30;99.90;;;;;;5052114;28;20503;-75
2023/07/07 04:34:11;;;;;;;13.10;12.47;;;15.80;99.90;;;;;;5052014;28;20452;-74
2023/07/07 04:36:40;;;;;;;14.73;13.93;;;16.30;99.90;;;;;;5052060;28;20464;-74
2023/07/07 04:39:07;;;;;;;15.30;14.33;;;16.80;99.90;;;;;;5052424;28;20448;-73
2023/07/07 04:41:34;;;;;;;13.33;12.63;;;17.10;99.90;;;;;;5052355;28;20452;-74
2023/07/07 04:44:01;;;;;;;14.93;14.10;;;17.20;99.90;;;;;;5052359;28;20785;-73
2023/07/07 04:46:30;;;;;;;13.17;12.47;;;17.30;99.90;;;;;;5047660;28;20460;-73
2023/07/07 04:48:57;;;;;;;13.43;12.73;;;17.60;99.90;;;;;;5048488;28;21016;-73
2023/07/07 04:51:24;;;;;;;14.73;13.93;;;17.70;99.90;;;;;;5047017;28;20479;-74
2023/07/07 04:53:52;;;;;;;13.27;12.47;;;17.90;99.90;;;;;;5043371;28;20455;-74
2023/07/07 04:56:20;;;;;;;14.67;13.90;;;17.90;99.90;;;;;;5047389;28;20451;-73
2023/07/07 04:58:49;;;;;;;12.67;12.00;;;18.00;99.90;;;;;;5048918;28;20441;-74
2023/07/07 05:01:18;;;;;;;12.97;12.33;;;18.20;99.90;;;;;;5046963;28;20538;-74
2023/07/07 05:03:46;;;;;;;14.07;13.37;;;18.30;99.90;;;;;;5046223;28;20477;-73
2023/07/07 05:06:13;;;;;;;13.67;12.77;;;18.30;99.90;;;;;;5046228;28;21009;-73
2023/07/07 05:08:42;;;;;;;13.60;12.87;;;18.30;99.90;;;;;;5047647;28;20811;-72
2023/07/07 05:11:13;;;;;;;13.17;12.47;;;18.40;99.90;;;;;;5046457;28;20484;-72
2023/07/07 05:13:40;;;;;;;13.10;12.50;;;18.50;99.90;;;;;;5033970;28;20460;-73
2023/07/07 05:16:08;;;;;;;14.03;12.97;;;18.70;99.90;;;;;;5031381;28;20448;-73
2023/07/07 05:18:35;;;;;;;14.30;13.47;;;18.90;99.90;;;;;;5031788;28;20457;-74
2023/07/07 05:21:02;;;;;;;14.30;13.37;;;19.30;99.90;;;;;;5031416;28;20456;-75
2023/07/07 05:23:29;;;;;;;13.67;12.77;;;19.70;99.90;;;;;;5045180;28;20444;-75
2023/07/07 05:25:55;;;;;;;15.37;14.60;;;19.80;99.90;;;;;;5042197;28;20459;-75
2023/07/07 05:28:23;;;;;;;12.90;12.27;;;20.20;99.90;;;;;;5035589;28;20459;-75
2023/07/07 05:30:50;;;;;;;13.97;13.20;;;20.50;99.90;;;;;;5042894;28;20972;-75
2023/07/07 05:33:17;;;;;;;13.23;12.10;;;20.40;99.60;;;;;;5034647;28;20453;-75
2023/07/07 05:35:47;;;;;;;13.70;13.10;;;20.50;99.70;;;;;;5034788;28;20481;-75
2023/07/07 05:38:15;;;;;;;14.63;13.83;;;20.70;99.40;;;;;;5040844;28;20468;-76
2023/07/07 05:40:42;;;;;;;14.07;13.27;;;20.70;98.70;;;;;;5036937;28;20451;-76
2023/07/07 05:43:09;;;;;;;13.20;12.30;;;20.70;98.70;;;;;;5050713;28;20456;-75
2023/07/07 05:45:37;;;;;;;13.03;12.43;;;20.70;98.60;;;;;;5051051;28;20470;-75
2023/07/07 05:48:04;;;;;;;12.07;11.47;;;20.70;98.40;;;;;;5046762;28;20455;-76
2023/07/07 05:50:31;;;;;;;14.27;13.57;;;20.60;98.80;;;;;;5040346;28;20445;-76
2023/07/07 05:52:58;;;;;;;13.43;12.63;;;20.40;99.00;;;;;;5032579;28;20492;-76
2023/07/07 05:55:28;;;;;;;13.50;12.70;;;20.70;99.10;;;;;;5039544;28;20456;-76
2023/07/07 05:57:54;;;;;;;13.80;13.00;;;21.00;98.40;;;;;;5043253;28;20456;-75
2023/07/07 06:00:21;;;;;;;12.80;12.20;;;21.20;97.50;;;;;;5046779;28;20479;-76
2023/07/07 06:02:50;;;;;;;14.43;13.73;;;21.40;97.30;;;;;;5039447;28;20459;-76
2023/07/07 06:05:17;;;;;;;13.40;12.60;;;21.60;96.40;;;;;;5030862;28;20453;-75
2023/07/07 06:07:44;;;;;;;13.40;12.73;;;21.80;96.20;;;;;;5030743;28;20484;-76
2023/07/07 06:10:11;;;;;;;14.10;13.40;;;21.90;95.70;;;;;;5030929;28;20563;-75
2023/07/07 06:12:38;;;;;;;15.10;14.30;;;22.10;95.20;;;;;;5030755;28;20491;-75
2023/07/07 06:15:06;;;;;;;15.57;14.53;;;22.50;94.70;;;;;;5036002;28;20453;-75
2023/07/07 06:17:33;;;;;;;12.33;11.67;;;22.50;94.10;;;;;;5049192;28;20466;-76
2023/07/07 06:20:01;;;;;;;13.10;12.50;;;22.60;93.70;;;;;;5030948;28;20453;-76
2023/07/07 06:22:28;;;;;;;13.43;12.83;;;22.80;93.40;;;;;;5042923;28;20478;-76
2023/07/07 06:24:55;;;;;;;13.87;13.07;;;23.00;93.40;;;;;;5050875;28;20486;-76
2023/07/07 06:27:21;;;;;;;13.83;13.13;;;23.20;92.50;;;;;;5050812;28;20452;-76
2023/07/07 06:29:48;;;;;;;14.17;13.53;;;23.00;92.20;;;;;;5050718;28;20459;-64
2023/07/07 06:32:15;;;;;;;15.30;14.47;;;23.20;92.20;;;;;;5041043;28;20848;-64
2023/07/07 06:34:41;;;;;;;17.13;14.37;;;23.40;91.70;;;;;;5030284;28;20510;-65
2023/07/07 06:37:10;;;;;;;14.30;13.60;;;23.40;92.00;;;;;;5030588;28;20453;-70
2023/07/07 06:39:36;;;;;;;14.47;13.77;;;23.70;91.70;;;;;;5030481;28;20452;-70
2023/07/07 06:42:03;;;;;;;14.73;14.00;;;23.90;90.10;;;;;;5030424;28;20445;-69
2023/07/07 06:44:30;;;;;;;13.70;13.07;;;24.10;90.00;;;;;;5030531;28;20471;-70
2023/07/07 06:46:57;;;;;;;14.17;13.53;;;24.30;87.50;;;;;;5030366;28;20465;-70
2023/07/07 06:49:23;;;;;;;14.67;13.93;;;24.20;87.60;;;;;;5031553;28;20444;-70
2023/07/07 06:51:50;;;;;;;14.90;14.03;;;24.70;87.30;;;;;;5034312;28;20491;-69
2023/07/07 06:54:18;;;;;;;13.47;12.83;;;25.20;85.20;;;;;;5034069;28;20444;-70
2023/07/07 06:56:45;;;;;;;13.77;13.23;;;25.40;83.60;;;;;;5034158;28;20449;-70
2023/07/07 06:59:11;;;;;;;14.90;14.10;;;25.30;83.30;;;;;;5034336;28;20460;-70
2023/07/07 07:01:39;;;;;;;13.93;13.33;;;25.30;84.10;;;;;;5034167;28;20471;-73
2023/07/07 07:04:06;;;;;;;14.00;13.17;;;25.20;84.10;;;;;;5033631;28;20457;-76
2023/07/07 07:06:33;;;;;;;13.20;12.47;;;25.40;83.80;;;;;;5039586;28;20480;-76
2023/07/07 07:09:00;;;;;;;13.10;12.50;;;25.40;81.20;;;;;;5038237;28;20744;-76
2023/07/07 07:11:28;;;;;;;14.37;13.60;;;25.60;81.00;;;;;;5037413;28;20787;-76
2023/07/07 07:13:54;;;;;;;13.80;13.00;;;25.60;80.50;;;;;;5043848;28;20457;-76
2023/07/07 07:16:21;;;;;;;13.67;12.67;;;25.90;78.40;;;;;;5043125;28;20450;-76
2023/07/07 07:18:48;;;;;;;15.40;14.50;;;25.90;78.60;;;;;;5038110;28;20460;-77
2023/07/07 07:21:15;;;;;;;13.90;13.20;;;26.40;78.80;;;;;;5050062;28;20453;-77
2023/07/07 07:23:42;;;;;;;14.00;13.30;;;26.60;76.30;;;;;;5046010;28;20950;-76
2023/07/07 07:26:09;;;;;;;14.40;13.70;;;26.70;75.70;;;;;;5041428;28;20511;-74
2023/07/07 07:28:37;;;;;;;15.20;14.03;;;26.90;75.20;;;;;;5042883;28;20460;-75
2023/07/07 07:31:03;;;;;;;14.97;14.20;;;27.00;73.30;;;;;;5046738;28;20464;-75
2023/07/07 07:33:31;;;;;;;14.93;14.23;;;27.10;73.60;;;;;;5044583;28;20483;-75
2023/07/07 07:35:57;;;;;;;14.87;14.17;;;27.40;73.70;;;;;;5043476;28;20505;-75
2023/07/07 07:38:24;;;;;;;12.63;12.13;;;27.80;71.30;;;;;;5039642;28;20452;-76
2023/07/07 07:40:52;;;;;;;13.50;12.90;;;27.90;71.20;;;;;;5036383;28;20792;-76
2023/07/07 07:43:19;;;;;;;14.17;13.47;;;28.20;70.30;;;;;;5043402;28;20503;-75
2023/07/07 07:45:47;;;;;;;14.63;14.00;;;27.50;68.80;;;;;;5045406;28;20824;-75
2023/07/07 07:48:14;;;;;;;15.90;15.30;;;28.60;68.40;;;;;;5044252;28;20523;-75
2023/07/07 07:50:41;;;;;;;15.30;14.50;;;29.00;66.90;;;;;;5039663;28;20465;-76
2023/07/07 07:53:08;;;;;;;14.13;13.43;;;28.70;67.40;;;;;;5044741;28;20523;-77
2023/07/07 07:55:34;;;;;;;15.57;14.77;;;28.90;66.80;;;;;;5040058;28;20619;-76
2023/07/07 07:58:01;;;;;;;15.87;15.00;;;28.80;66.90;;;;;;5042105;28;20471;-76
2023/07/07 08:00:28;;;;;;;14.50;13.87;;;28.90;66.70;;;;;;5043380;28;20452;-76
2023/07/07 08:02:56;;;;;;;15.17;14.37;;;29.40;65.30;;;;;;5040961;28;20460;-78
2023/07/07 08:05:23;;;;;;;15.80;15.10;;;29.90;65.00;;;;;;5038439;28;20476;-76
2023/07/07 08:07:49;;;;;;;17.40;16.50;;;30.20;63.70;;;;;;5045300;28;20488;-75
2023/07/07 08:10:17;;;;;;;16.37;15.57;;;30.80;61.90;;;;;;5046705;28;20456;-76
2023/07/07 08:12:43;;;;;;;15.43;14.77;;;31.50;60.20;;;;;;5043025;28;20919;-75
2023/07/07 08:15:12;;;;;;;15.10;14.20;;;31.80;58.40;;;;;;5046252;28;20455;-76
2023/07/07 08:17:39;;;;;;;17.30;16.50;;;31.70;58.40;;;;;;5044778;28;20795;-75
2023/07/07 08:20:17;;;;;;;16.03;15.13;;;31.20;58.20;;;;;;5040178;28;20886;-77
2023/07/07 08:22:44;;;;;;;15.57;14.93;;;30.80;59.10;;;;;;5040385;28;21023;-73
2023/07/07 08:25:11;;;;;;;15.43;14.73;;;31.20;59.30;;;;;;5042850;28;20449;-74
2023/07/07 08:27:38;;;;;;;15.90;15.10;;;31.40;58.20;;;;;;5038790;28;20479;-74
2023/07/07 08:30:05;;;;;;;16.20;15.40;;;31.40;58.10;;;;;;5039259;28;20457;-75
2023/07/07 08:32:38;;;;;;;16.83;15.83;;;31.50;58.10;;;;;;5040565;28;20487;-76
2023/07/07 08:35:07;;;;;;;15.40;14.80;;;32.30;56.90;;;;;;5038054;28;20483;-75
2023/07/07 08:37:34;;;;;;;16.67;15.90;;;32.10;56.80;;;;;;5045631;28;20459;-74
2023/07/07 08:40:01;;;;;;;18.00;17.10;;;32.30;57.20;;;;;;5044137;28;20931;-75
2023/07/07 08:42:30;;;;;;;17.30;16.40;;;32.90;56.00;;;;;;5040749;28;20456;-75
2023/07/07 08:44:59;;;;;;;16.40;15.60;;;33.00;55.20;;;;;;5045267;28;20445;-75
2023/07/07 08:47:43;;;;;;;16.60;15.83;;;33.30;54.30;;;;;;5042450;28;20464;-75
2023/07/07 08:50:17;;;;;;;17.13;16.33;;;33.00;55.30;;;;;;5040670;28;20925;-76
2023/07/07 08:52:53;;;;;;;16.27;15.57;;;33.60;53.80;;;;;;5041331;28;20498;-75
2023/07/07 08:55:38;;;;;;;17.63;16.53;;;33.40;53.60;;;;;;5042647;28;20452;-75
2023/07/07 08:58:13;;;;;;;16.27;15.57;;;34.50;52.30;;;;;;5037873;28;20453;-76
2023/07/07 09:01:06;;;;;;;19.73;18.40;;;35.60;50.50;;;;;;5036047;28;20459;-75
2023/07/07 09:03:47;;;;;;;17.83;16.90;;;36.20;49.20;;;;;;5041444;28;20453;-76
2023/07/07 09:06:30;;;;;;;17.67;16.77;;;36.10;47.80;;;;;;5039340;28;20453;-75
2023/07/07 09:09:03;;;;;;;19.47;18.60;;;35.30;49.20;;;;;;5043361;28;20447;-76
2023/07/07 09:11:39;;;;;;;17.87;17.07;;;35.70;49.20;;;;;;5041039;28;20500;-75
2023/07/07 09:14:11;;;;;;;17.87;16.77;;;36.00;48.10;;;;;;5041959;28;20848;-75
2023/07/07 09:16:39;;;;;;;18.07;17.27;;;36.60;47.10;;;;;;5040409;28;20452;-75
2023/07/07 09:19:11;;;;;;;18.17;17.43;;;36.60;43.80;;;;;;5045370;28;20448;-76
2023/07/07 09:21:44;;;;;;;17.20;16.50;;;36.60;44.20;;;;;;5042784;28;20491;-75
2023/07/07 09:24:17;;;;;;;16.83;15.93;;;36.10;44.10;;;;;;5040525;28;20456;-75
2023/07/07 09:26:47;;;;;;;16.77;15.90;;;35.30;42.80;;;;;;5041857;28;20479;-76
2023/07/07 09:29:20;;;;;;;17.60;16.70;;;35.70;44.90;;;;;;5039913;28;20461;-75
2023/07/07 09:31:47;;;;;;;18.30;17.43;;;34.80;42.00;;;;;;5041193;28;20453;-75
2023/07/07 09:34:15;;;;;;;16.93;16.03;;;34.20;43.30;;;;;;5040038;28;20491;-74
2023/07/07 09:36:50;;;;;;;17.30;16.60;;;33.90;41.10;;;;;;5037503;28;20515;-75
2023/07/07 09:39:34;;;;;;;17.50;16.73;;;33.80;41.30;;;;;;5045695;28;20456;-75
2023/07/07 09:42:10;;;;;;;18.63;17.67;;;33.80;40.10;;;;;;5040213;28;20444;-75
2023/07/07 09:44:52;;;;;;;16.97;16.17;;;33.70;41.20;;;;;;5046780;28;20463;-75
2023/07/07 09:47:31;;;;;;;17.77;16.87;;;34.20;42.00;;;;;;5036759;28;20457;-75
2023/07/07 09:50:04;;;;;;;16.40;15.70;;;34.90;41.00;;;;;;5040505;28;20453;-76
2023/07/07 09:52:41;;;;;;;17.20;16.30;;;34.70;40.90;;;;;;5044187;28;20853;-75
2023/07/07 09:55:15;;;;;;;17.33;16.43;;;34.10;42.10;;;;;;5032745;28;20473;-75
2023/07/07 09:57:48;;;;;;;15.73;15.03;;;33.90;42.40;;;;;;5037518;28;20456;-75
2023/07/07 10:00:18;;;;;;;17.13;16.30;;;33.90;42.00;;;;;;5032410;28;20811;-75
2023/07/07 10:02:46;;;;;;;17.13;16.23;;;34.10;42.50;;;;;;5039459;28;20448;-75
2023/07/07 10:05:19;;;;;;;17.13;16.30;;;34.30;43.00;;;;;;5036436;28;20876;-76
2023/07/07 10:07:48;;;;;;;18.33;17.37;;;34.00;42.70;;;;;;5041747;28;20483;-74
2023/07/07 10:10:16;;;;;;;17.63;16.73;;;34.30;42.90;;;;;;5035738;28;20503;-73
2023/07/07 10:12:43;;;;;;;18.17;17.30;;;34.90;42.30;;;;;;5032550;28;20564;-73
2023/07/07 10:15:35;;;;;;;19.97;18.77;;;35.90;41.10;;;;;;5050214;28;20450;-74
2023/07/07 10:18:12;;;;;;;17.93;17.13;;;35.80;38.90;;;;;;5043818;28;20463;-74
2023/07/07 10:20:38;;;;;;;18.90;17.90;;;35.10;39.70;;;;;;5042571;28;20478;-76
2023/07/07 10:23:11;;;;;;;17.77;16.80;;;34.70;39.50;;;;;;5043396;28;20452;-76
2023/07/07 10:25:38;;;;;;;18.30;17.30;;;34.40;40.30;;;;;;5040884;28;20460;-74
2023/07/07 10:28:05;;;;;;;20.00;18.97;;;35.60;39.10;;;;;;5051032;28;20456;-76
2023/07/07 10:30:32;;;;;;;18.10;17.20;;;35.40;39.00;;;;;;5046328;28;20453;-76
2023/07/07 10:32:59;;;;;;;18.23;17.13;;;35.20;38.70;;;;;;5039539;28;20519;-73
2023/07/07 10:35:25;;;;;;;18.93;17.80;;;35.90;38.30;;;;;;5045271;28;20479;-75
2023/07/07 10:37:52;;;;;;;22.10;20.77;;;36.80;36.60;;;;;;5042657;28;20483;-75
2023/07/07 10:40:24;;;;;;;20.30;19.00;;;37.50;34.90;;;;;;5048377;28;20460;-75
2023/07/07 10:42:52;;;;;;;20.83;19.73;;;37.20;35.50;;;;;;5039616;28;20488;-74
2023/07/07 10:45:19;;;;;;;20.90;19.80;;;37.20;35.70;;;;;;5042788;28;20488;-75
2023/07/07 10:47:45;;;;;;;18.87;17.80;;;38.00;35.00;;;;;;5044024;28;20445;-75
2023/07/07 10:50:16;;;;;;;20.60;19.47;;;38.30;35.20;;;;;;5044732;28;20460;-75
2023/07/07 10:52:55;;;;;;;18.93;18.03;;;39.00;34.20;;;;;;5042689;28;20527;-75
2023/07/07 10:55:32;;;;;;;17.47;16.57;;;37.10;35.70;;;;;;5047806;28;20456;-74
2023/07/07 10:58:09;;;;;;;19.13;17.87;;;36.20;37.60;;;;;;5042416;28;20514;-75
2023/07/07 11:00:46;;;;;;;19.23;18.23;;;36.10;36.70;;;;;;5050408;28;20451;-75
2023/07/07 11:03:48;;;;;;;19.53;18.53;;;36.80;35.60;;;;;;5037235;28;20495;-75
2023/07/07 11:06:24;;;;;;;19.47;18.43;;;37.30;35.00;;;;;;5036513;28;20451;-74
2023/07/07 11:09:00;;;;;;;20.17;19.07;;;36.90;34.30;;;;;;5048478;28;20447;-75
2023/07/07 11:11:35;;;;;;;20.73;19.63;;;36.60;34.60;;;;;;5043702;28;20584;-75
2023/07/07 11:14:12;;;;;;;19.03;18.03;;;36.40;33.60;;;;;;5045298;28;20495;-76
2023/07/07 11:16:47;;;;;;;18.30;17.40;;;36.30;34.60;;;;;;5042636;28;20460;-75
2023/07/07 11:19:31;;;;;;;20.87;19.47;;;36.50;34.80;;;;;;5041508;28;20455;-75
2023/07/07 11:22:08;;;;;;;21.17;20.00;;;36.60;33.90;;;;;;5047155;28;20463;-74
2023/07/07 11:24:41;;;;;;;19.00;18.00;;;36.30;33.70;;;;;;5044152;28;20475;-75
2023/07/07 11:27:34;;;;;;;19.33;18.30;;;35.70;34.70;;;;;;5050247;28;20802;-75
2023/07/07 11:30:11;;;;;;;18.80;17.80;;;35.60;33.90;;;;;;5031747;28;20449;-75
2023/07/07 11:32:45;;;;;;;18.43;17.60;;;35.70;34.70;;;;;;5032524;28;20457;-75
2023/07/07 11:35:26;;;;;;;18.00;17.10;;;35.40;35.20;;;;;;5048894;28;20487;-74
2023/07/07 11:38:05;;;;;;;19.47;18.47;;;35.60;35.10;;;;;;5048297;28;20985;-75
2023/07/07 11:41:08;;;;;;;21.07;19.93;;;36.20;34.50;;;;;;5035594;28;20461;-75
2023/07/07 11:43:54;;;;;;;19.20;18.30;;;35.80;34.30;;;;;;5023879;28;20976;-75
2023/07/07 11:46:39;;;;;;;20.53;19.40;;;36.50;34.20;;;;;;5031910;28;20472;-75
2023/07/07 11:49:21;;;;;;;19.87;18.77;;;37.90;33.30;;;;;;5031747;28;20474;-74
2023/07/07 11:51:55;;;;;;;19.57;18.47;;;37.30;31.90;;;;;;5031811;28;20452;-74
2023/07/07 11:54:43;;;;;;;20.83;19.53;;;37.10;32.60;;;;;;5031636;28;20484;-75
2023/07/07 11:57:27;;;;;;;19.10;18.00;;;36.30;33.10;;;;;;5031382;28;20455;-75
2023/07/07 12:00:13;;;;;;;19.97;18.77;;;36.10;33.80;;;;;;5031641;28;20456;-75
2023/07/07 12:02:45;;;;;;;21.80;20.60;;;37.00;32.90;;;;;;5043205;28;20964;-75
2023/07/07 12:05:14;;;;;;;20.73;19.40;;;36.90;31.60;;;;;;5033242;28;20448;-75
2023/07/07 12:07:45;;;;;;;18.73;17.93;;;36.50;31.60;;;;;;5050595;28;21216;-75
2023/07/07 12:10:18;;;;;;;18.77;17.77;;;36.10;32.20;;;;;;5039133;28;20449;-74
2023/07/07 12:12:50;;;;;;;20.50;19.17;;;35.70;33.00;;;;;;5031184;28;20457;-75
2023/07/07 12:15:23;;;;;;;20.67;19.67;;;35.60;33.90;;;;;;5031153;28;20453;-75
2023/07/07 12:17:55;;;;;;;21.97;20.67;;;35.20;33.40;;;;;;5031325;28;20499;-75
2023/07/07 12:20:27;;;;;;;19.50;18.57;;;35.10;33.40;;;;;;5031171;28;20445;-74
2023/07/07 12:22:58;;;;;;;19.90;18.90;;;35.30;33.30;;;;;;5035291;28;20456;-74
2023/07/07 12:25:26;;;;;;;19.13;18.03;;;35.30;33.90;;;;;;5040645;28;20462;-75
2023/07/07 12:27:54;;;;;;;19.17;18.30;;;35.30;33.30;;;;;;5042824;28;20830;-74
2023/07/07 12:30:27;;;;;;;21.63;20.43;;;36.40;33.10;;;;;;5031290;28;20516;-75
2023/07/07 12:32:55;;;;;;;19.73;18.73;;;38.20;31.40;;;;;;5041577;28;20543;-74
2023/07/07 12:35:27;;;;;;;20.23;18.97;;;38.20;29.60;;;;;;5050945;28;20475;-74
2023/07/07 12:37:56;;;;;;;22.37;21.30;;;37.50;31.10;;;;;;5051086;28;20551;-74
2023/07/07 12:40:24;;;;;;;21.20;19.90;;;37.10;29.60;;;;;;5050909;28;20452;-75
2023/07/07 12:42:58;;;;;;;21.23;20.03;;;36.50;30.30;;;;;;5051264;28;20452;-75